Time;durP1;ratioP1;P1;durP2;ratioP2;P2;SDS_P1;SDS_P2;PMS_P1;PMS_P2;Temp;Humidity;BMP_temperature;BMP_pressure;BME280_temperature;BME280_humidity;BME280_pressure;Samples;Min_cycle;Max_cycle;Signal;HPM_P1;HPM_P2
2022/05/18 00:02:00;;;;;;;12.18;7.82;;;14.30;99.90;;;;;;5214120;28;20523;-71
2022/05/18 00:04:33;;;;;;;18.02;8.60;;;14.30;99.90;;;;;;5192110;28;20048;-71
2022/05/18 00:07:05;;;;;;;9.98;8.63;;;14.20;99.90;;;;;;5191457;28;20052;-70
2022/05/18 00:09:38;;;;;;;12.68;8.52;;;14.20;99.90;;;;;;5217445;28;20080;-71
2022/05/18 00:12:11;;;;;;;14.45;8.65;;;14.20;99.90;;;;;;5211766;28;20044;-72
2022/05/18 00:14:44;;;;;;;12.77;8.75;;;14.10;99.90;;;;;;5216934;28;20044;-71
2022/05/18 00:17:16;;;;;;;20.47;8.83;;;14.10;99.90;;;;;;5209955;28;20045;-72
2022/05/18 00:19:49;;;;;;;11.63;8.70;;;14.10;99.90;;;;;;5211460;28;20048;-71
2022/05/18 00:22:21;;;;;;;14.23;8.77;;;14.10;99.90;;;;;;5211005;28;20052;-70
2022/05/18 00:24:55;;;;;;;15.13;8.70;;;14.10;99.90;;;;;;5197278;28;20059;-71
2022/05/18 00:27:27;;;;;;;;;;;14.00;99.90;;;;;;5213679;28;20695;-71
2022/05/18 00:29:59;;;;;;;13.18;8.95;;;13.90;99.90;;;;;;5205466;28;19924;-72
2022/05/18 00:32:32;;;;;;;21.90;9.13;;;13.90;99.90;;;;;;5203018;28;20056;-72
2022/05/18 00:35:06;;;;;;;13.30;10.05;;;13.90;99.90;;;;;;5216858;28;20480;-72
2022/05/18 00:37:38;;;;;;;14.45;8.65;;;13.90;99.90;;;;;;5212534;28;20052;-71
2022/05/18 00:40:14;;;;;;;16.45;9.02;;;13.90;99.90;;;;;;5195380;28;20436;-73
2022/05/18 00:42:47;;;;;;;17.25;9.93;;;13.90;99.90;;;;;;5222505;28;20429;-72
2022/05/18 00:45:20;;;;;;;13.68;9.02;;;13.80;99.90;;;;;;5220650;28;20048;-71
2022/05/18 00:47:54;;;;;;;12.45;9.73;;;13.80;99.90;;;;;;5184812;28;20551;-72
2022/05/18 00:50:33;;;;;;;13.37;9.80;;;13.70;99.90;;;;;;5198116;28;20071;-71
2022/05/18 00:53:10;;;;;;;13.77;9.32;;;13.70;99.90;;;;;;5215961;28;20513;-71
2022/05/18 00:55:49;;;;;;;16.25;10.20;;;13.70;99.90;;;;;;5221312;28;20044;-73
2022/05/18 00:58:33;;;;;;;20.23;9.98;;;13.80;99.90;;;;;;5200133;28;20049;-72
2022/05/18 01:01:07;;;;;;;13.52;8.85;;;13.80;99.90;;;;;;5199100;28;20064;-71
2022/05/18 01:03:47;;;;;;;16.52;9.18;;;13.70;99.90;;;;;;5218787;28;20346;-71
2022/05/18 01:06:26;;;;;;;13.32;8.65;;;13.60;99.90;;;;;;5192860;28;20040;-69
2022/05/18 01:09:07;;;;;;;15.73;9.02;;;13.60;99.90;;;;;;5198071;28;20060;-70
2022/05/18 01:11:40;;;;;;;11.05;8.77;;;13.50;99.90;;;;;;5197549;28;20044;-70
2022/05/18 01:14:26;;;;;;;14.60;9.43;;;13.60;99.90;;;;;;5213161;28;20052;-72
2022/05/18 01:16:59;;;;;;;12.77;8.27;;;13.60;99.90;;;;;;5213069;28;20043;-69
2022/05/18 01:19:44;;;;;;;11.75;9.63;;;13.60;99.90;;;;;;5201067;28;20044;-69
2022/05/18 01:22:40;;;;;;;20.52;9.52;;;13.60;99.90;;;;;;5213402;28;20414;-70
2022/05/18 01:25:37;;;;;;;13.57;10.15;;;13.60;99.90;;;;;;5194951;28;20052;-71
2022/05/18 01:28:10;;;;;;;14.73;9.07;;;13.50;99.90;;;;;;5211784;28;20622;-71
2022/05/18 01:30:47;;;;;;;18.13;9.38;;;13.40;99.90;;;;;;5196760;28;20673;-72
2022/05/18 01:33:21;;;;;;;12.50;9.77;;;13.50;99.90;;;;;;5219920;28;20051;-70
2022/05/18 01:35:53;;;;;;;;;;;13.50;99.90;;;;;;5214953;28;20048;-72
2022/05/18 01:38:26;;;;;;;11.15;8.73;;;13.40;99.90;;;;;;5218515;28;19925;-71
2022/05/18 01:41:02;;;;;;;15.00;9.55;;;13.40;99.90;;;;;;5220352;28;20048;-72
2022/05/18 01:43:47;;;;;;;18.77;9.65;;;13.30;99.90;;;;;;5204105;28;20059;-72
2022/05/18 01:46:21;;;;;;;12.13;9.50;;;13.40;99.90;;;;;;5214607;28;20052;-71
2022/05/18 01:48:54;;;;;;;11.18;8.80;;;13.40;99.90;;;;;;5214402;28;20469;-70
2022/05/18 01:51:29;;;;;;;19.53;9.57;;;13.30;99.90;;;;;;5218320;28;20063;-71
2022/05/18 01:54:02;;;;;;;17.73;9.75;;;13.20;99.90;;;;;;5214421;28;20452;-73
2022/05/18 01:56:34;;;;;;;15.15;9.77;;;13.20;99.90;;;;;;5215533;28;20056;-71
2022/05/18 01:59:07;;;;;;;11.85;9.27;;;13.20;99.90;;;;;;5211090;28;20115;-71
2022/05/18 02:01:39;;;;;;;14.33;10.00;;;13.20;99.90;;;;;;5210509;28;20657;-70
2022/05/18 02:04:13;;;;;;;15.18;9.05;;;13.20;99.90;;;;;;5215491;28;20549;-70
2022/05/18 02:06:45;;;;;;;14.18;9.63;;;13.20;99.90;;;;;;5216835;28;20064;-71
2022/05/18 02:09:20;;;;;;;19.10;10.63;;;13.20;99.90;;;;;;5204323;28;20103;-71
2022/05/18 02:11:52;;;;;;;11.07;9.48;;;13.10;99.90;;;;;;5209596;28;20646;-71
2022/05/18 02:14:26;;;;;;;12.63;9.97;;;13.20;99.90;;;;;;5210065;28;20079;-69
2022/05/18 02:16:59;;;;;;;12.77;8.98;;;13.10;99.90;;;;;;5204659;28;20040;-71
2022/05/18 02:19:31;;;;;;;12.05;9.10;;;13.10;99.90;;;;;;5212438;28;20085;-69
2022/05/18 02:22:04;;;;;;;12.75;10.07;;;13.00;99.90;;;;;;5208162;28;20087;-71
2022/05/18 02:24:36;;;;;;;18.20;9.65;;;13.10;99.90;;;;;;5193902;28;20055;-71
2022/05/18 02:27:09;;;;;;;14.90;9.00;;;12.90;99.90;;;;;;5216726;28;20132;-71
2022/05/18 02:29:42;;;;;;;15.70;9.40;;;12.90;99.90;;;;;;5212032;28;20045;-71
2022/05/18 02:32:15;;;;;;;15.33;9.87;;;13.00;99.90;;;;;;5207498;28;20404;-71
2022/05/18 02:34:47;;;;;;;15.32;9.73;;;12.90;99.90;;;;;;5193995;28;20060;-71
2022/05/18 02:37:20;;;;;;;11.25;9.40;;;12.90;99.90;;;;;;5212725;28;20144;-70
2022/05/18 02:39:52;;;;;;;16.05;9.88;;;12.90;99.90;;;;;;5212995;28;20040;-71
2022/05/18 02:42:25;;;;;;;16.00;10.32;;;12.80;99.90;;;;;;5213655;28;20048;-72
2022/05/18 02:44:57;;;;;;;14.02;9.57;;;12.80;99.90;;;;;;5216060;28;20060;-71
2022/05/18 02:47:30;;;;;;;16.10;9.80;;;12.70;99.90;;;;;;5207071;28;20786;-71
2022/05/18 02:50:03;;;;;;;13.25;9.23;;;12.70;99.90;;;;;;5214286;28;20056;-72
2022/05/18 02:52:37;;;;;;;14.95;9.43;;;12.70;99.90;;;;;;5195617;28;20580;-72
2022/05/18 02:58:00;;;;;;;13.27;9.68;;;12.70;99.90;;;;;;5217364;28;21135;-71
2022/05/18 03:00:34;;;;;;;12.05;8.65;;;12.70;99.90;;;;;;5217307;28;20079;-70
2022/05/18 03:03:06;;;;;;;16.00;9.97;;;12.60;99.90;;;;;;5206321;28;20057;-72
2022/05/18 03:05:38;;;;;;;11.80;9.15;;;12.70;99.90;;;;;;5211201;28;20045;-71
2022/05/18 03:08:11;;;;;;;13.77;9.32;;;12.60;99.90;;;;;;5202206;28;20033;-72
2022/05/18 03:10:43;;;;;;;13.20;10.18;;;12.50;99.90;;;;;;5197705;28;20048;-72
2022/05/18 03:13:16;;;;;;;12.35;9.57;;;12.50;99.90;;;;;;5210249;28;20362;-72
2022/05/18 03:15:49;;;;;;;14.95;9.25;;;12.50;99.90;;;;;;5216461;28;20045;-72
2022/05/18 03:18:22;;;;;;;13.77;9.88;;;12.50;99.90;;;;;;5211074;28;20049;-72
2022/05/18 03:24:03;;;;;;;13.95;10.95;;;12.30;99.90;;;;;;5097333;28;20055;-72
2022/05/18 03:26:35;;;;;;;13.98;9.85;;;12.20;99.90;;;;;;5205416;22;22290;-73
2022/05/18 03:29:07;;;;;;;13.88;10.43;;;12.00;99.90;;;;;;5205457;28;20076;-73
2022/05/18 03:31:40;;;;;;;12.30;9.68;;;12.00;99.90;;;;;;5205645;28;20408;-73
2022/05/18 03:34:13;;;;;;;17.23;11.03;;;12.00;99.90;;;;;;5188512;28;20053;-73
2022/05/18 03:36:46;;;;;;;11.95;9.43;;;12.00;99.90;;;;;;5185267;28;20060;-73
2022/05/18 03:39:18;;;;;;;14.93;9.63;;;11.90;99.90;;;;;;5185088;28;20056;-73
2022/05/18 03:41:52;;;;;;;16.98;9.77;;;12.00;99.90;;;;;;5176989;28;20050;-73
2022/05/18 03:44:25;;;;;;;14.77;9.75;;;11.90;99.90;;;;;;5189559;28;20478;-73
2022/05/18 03:46:58;;;;;;;14.77;9.50;;;11.90;99.90;;;;;;5186034;28;20063;-73
2022/05/18 03:49:31;;;;;;;15.15;10.70;;;11.90;99.90;;;;;;5175433;28;20065;-73
2022/05/18 03:52:04;;;;;;;15.77;9.73;;;11.90;99.90;;;;;;5174170;28;21347;-73
2022/05/18 03:54:41;;;;;;;22.38;11.85;;;11.90;99.90;;;;;;5168431;28;20053;-73
2022/05/18 03:57:13;;;;;;;11.88;9.32;;;11.80;99.90;;;;;;5171269;28;20048;-73
2022/05/18 03:59:45;;;;;;;14.13;9.10;;;11.80;99.90;;;;;;5171487;28;20041;-72
2022/05/18 04:02:18;;;;;;;13.05;9.23;;;11.90;99.90;;;;;;5176982;28;20069;-73
2022/05/18 04:04:50;;;;;;;12.50;10.02;;;11.90;99.90;;;;;;5172491;28;20414;-73
2022/05/18 04:07:23;;;;;;;16.20;9.68;;;11.90;99.90;;;;;;5178543;28;20041;-72
2022/05/18 04:09:55;;;;;;;12.73;10.43;;;11.90;99.90;;;;;;5171589;28;21549;-73
2022/05/18 04:12:27;;;;;;;12.10;9.13;;;12.10;99.90;;;;;;5169302;28;20060;-72
2022/05/18 04:15:01;;;;;;;15.30;9.23;;;12.20;99.90;;;;;;5179189;28;20049;-72
2022/05/18 04:17:33;;;;;;;12.00;9.20;;;12.30;99.90;;;;;;5169591;28;20057;-73
2022/05/18 04:20:06;;;;;;;16.07;8.60;;;12.20;99.90;;;;;;5172668;28;20045;-73
2022/05/18 04:22:40;;;;;;;12.50;9.07;;;12.30;99.90;;;;;;5175271;28;20056;-73
2022/05/18 04:25:15;;;;;;;14.63;9.70;;;12.30;99.90;;;;;;5169288;28;20048;-73
2022/05/18 04:27:48;;;;;;;12.82;9.85;;;12.30;99.90;;;;;;5186455;28;20045;-72
2022/05/18 04:30:22;;;;;;;13.93;10.25;;;12.30;99.90;;;;;;5183089;28;20493;-73
2022/05/18 04:32:55;;;;;;;15.00;11.30;;;12.40;99.90;;;;;;5170379;28;20045;-73
2022/05/18 04:35:29;;;;;;;13.48;10.48;;;12.50;99.90;;;;;;5178472;28;20505;-72
2022/05/18 04:38:01;;;;;;;15.32;9.77;;;12.40;99.90;;;;;;5184151;28;20611;-73
2022/05/18 04:40:34;;;;;;;16.23;9.65;;;12.50;99.90;;;;;;5173321;28;20056;-73
2022/05/18 04:43:07;;;;;;;13.35;9.45;;;12.60;99.90;;;;;;5171287;28;20053;-71
2022/05/18 04:45:44;;;;;;;12.90;8.93;;;12.70;99.90;;;;;;5174649;28;20466;-73
2022/05/18 04:48:19;;;;;;;13.88;9.73;;;12.80;99.90;;;;;;5158968;28;20458;-72
2022/05/18 04:50:52;;;;;;;10.85;8.98;;;12.90;99.90;;;;;;5175699;28;20072;-73
2022/05/18 04:53:24;;;;;;;11.93;9.43;;;13.00;99.90;;;;;;5194928;28;20060;-73
2022/05/18 04:55:57;;;;;;;13.35;9.70;;;13.10;99.90;;;;;;5179339;28;20042;-72
2022/05/18 04:58:29;;;;;;;13.70;9.65;;;13.30;99.90;;;;;;5171414;28;20132;-72
2022/05/18 05:01:06;;;;;;;10.50;8.45;;;13.30;99.90;;;;;;5151671;28;20060;-74
2022/05/18 05:03:38;;;;;;;15.85;9.52;;;13.30;99.90;;;;;;5175219;28;21350;-73
2022/05/18 05:06:11;;;;;;;9.88;8.55;;;13.50;99.90;;;;;;5163933;28;20041;-73
2022/05/18 05:08:43;;;;;;;10.60;8.63;;;13.50;99.90;;;;;;5175167;28;20045;-73
2022/05/18 05:11:16;;;;;;;15.05;10.20;;;13.60;99.90;;;;;;5177960;28;20041;-73
2022/05/18 05:13:48;;;;;;;12.88;8.60;;;13.70;99.90;;;;;;5165361;28;20049;-72
2022/05/18 05:16:21;;;;;;;13.43;9.82;;;13.80;99.90;;;;;;5164619;28;20049;-73
2022/05/18 05:18:54;;;;;;;15.00;9.75;;;14.00;99.90;;;;;;5158623;28;20045;-73
2022/05/18 05:21:26;;;;;;;11.88;9.05;;;14.10;99.90;;;;;;5171660;28;20046;-72
2022/05/18 05:23:58;;;;;;;12.63;9.00;;;14.20;99.90;;;;;;5167111;28;20528;-70
2022/05/18 05:26:31;;;;;;;13.55;8.85;;;14.30;99.90;;;;;;5169674;28;20049;-68
2022/05/18 05:29:03;;;;;;;12.80;8.93;;;14.40;99.90;;;;;;5170856;28;20045;-69
2022/05/18 05:31:37;;;;;;;13.13;8.10;;;14.40;99.90;;;;;;5170544;28;20060;-71
2022/05/18 05:34:10;;;;;;;13.02;9.68;;;14.60;99.90;;;;;;5178954;28;20045;-69
2022/05/18 05:36:42;;;;;;;13.77;9.52;;;14.70;99.90;;;;;;5187653;28;20053;-69
2022/05/18 05:39:15;;;;;;;12.15;9.20;;;14.80;99.90;;;;;;5186894;28;20927;-71
2022/05/18 05:41:47;;;;;;;15.87;9.33;;;14.90;99.90;;;;;;5186460;28;20512;-71
2022/05/18 05:44:20;;;;;;;12.45;9.13;;;15.00;99.90;;;;;;5186265;28;20041;-68
2022/05/18 05:46:53;;;;;;;12.75;8.93;;;15.10;99.90;;;;;;5186736;28;20037;-69
2022/05/18 05:49:25;;;;;;;14.98;10.48;;;15.20;99.90;;;;;;5189909;28;20046;-69
2022/05/18 05:51:58;;;;;;;12.40;10.32;;;15.40;99.90;;;;;;5183758;28;20060;-71
2022/05/18 05:54:30;;;;;;;15.38;10.27;;;15.40;99.90;;;;;;5185556;28;20046;-70
2022/05/18 05:57:04;;;;;;;14.18;10.25;;;15.50;99.90;;;;;;5185997;28;20046;-68
2022/05/18 05:59:37;;;;;;;15.65;10.85;;;15.50;99.90;;;;;;5195466;28;20049;-71
2022/05/18 06:02:12;;;;;;;15.60;10.15;;;15.60;99.90;;;;;;5179675;28;20049;-71
2022/05/18 06:04:46;;;;;;;15.93;10.10;;;15.70;99.90;;;;;;5182662;28;20433;-70
2022/05/18 06:07:19;;;;;;;15.48;9.80;;;15.80;99.90;;;;;;5179016;28;20045;-72
2022/05/18 06:09:51;;;;;;;22.42;9.85;;;15.90;99.90;;;;;;5182669;28;20045;-71
2022/05/18 06:12:25;;;;;;;18.00;9.35;;;16.00;99.90;;;;;;5180559;28;20054;-71
2022/05/18 06:14:58;;;;;;;;;;;16.10;99.90;;;;;;5173702;28;20088;-72
2022/05/18 06:17:31;;;;;;;13.98;9.63;;;16.30;99.90;;;;;;5190587;28;19925;-72
2022/05/18 06:20:04;;;;;;;13.55;9.63;;;16.50;99.90;;;;;;5185553;28;20892;-72
2022/05/18 06:22:36;;;;;;;15.75;10.48;;;16.60;99.90;;;;;;5176570;28;20048;-72
2022/05/18 06:25:11;;;;;;;14.85;11.27;;;16.80;99.90;;;;;;5185087;28;20508;-72
2022/05/18 06:27:44;;;;;;;17.00;9.65;;;16.90;99.90;;;;;;5182977;28;20049;-72
2022/05/18 06:30:16;;;;;;;13.32;9.75;;;17.10;99.90;;;;;;5182636;28;20061;-71
2022/05/18 06:32:49;;;;;;;17.17;9.80;;;17.20;99.90;;;;;;5190335;28;20057;-72
2022/05/18 06:35:22;;;;;;;15.80;9.80;;;17.30;99.90;;;;;;5184935;28;20053;-72
2022/05/18 06:37:55;;;;;;;;;;;17.50;99.90;;;;;;5182219;28;20049;-72
2022/05/18 06:43:20;;;;;;;12.35;9.35;;;17.70;99.90;;;;;;5152433;28;20049;-72
2022/05/18 06:45:53;;;;;;;17.00;10.07;;;17.90;99.90;;;;;;5189970;28;20046;-72
2022/05/18 06:48:25;;;;;;;19.88;8.65;;;18.00;99.90;;;;;;5186903;28;20056;-72
2022/05/18 06:51:24;;;;;;;10.40;8.70;;;18.10;99.90;;;;;;5174608;28;20041;-70
2022/05/18 06:53:57;;;;;;;13.88;8.93;;;18.30;99.40;;;;;;5176880;28;20056;-71
2022/05/18 06:56:34;;;;;;;17.38;9.43;;;18.30;97.60;;;;;;5178036;28;20049;-69
2022/05/18 06:59:08;;;;;;;14.13;8.55;;;18.40;96.00;;;;;;5182866;28;21519;-71
2022/05/18 07:01:41;;;;;;;;;;;18.40;96.40;;;;;;5195388;28;20048;-72
2022/05/18 07:04:14;;;;;;;17.95;9.15;;;18.60;96.60;;;;;;5182496;28;19932;-71
2022/05/18 07:06:47;;;;;;;;;;;18.70;96.70;;;;;;5174443;28;20052;-70
2022/05/18 07:09:21;;;;;;;11.95;8.35;;;18.80;94.50;;;;;;5178074;28;20817;-71
2022/05/18 07:11:54;;;;;;;15.90;8.90;;;19.10;94.20;;;;;;5188303;28;20056;-70
2022/05/18 07:14:29;;;;;;;15.07;8.18;;;19.10;93.30;;;;;;5190081;28;20076;-71
2022/05/18 07:17:01;;;;;;;11.13;7.65;;;19.20;93.30;;;;;;5191227;28;20575;-71
2022/05/18 07:19:33;;;;;;;11.60;8.02;;;19.30;92.90;;;;;;5190939;28;20065;-71
2022/05/18 07:22:06;;;;;;;13.15;7.72;;;19.40;93.10;;;;;;5189808;28;20065;-71
2022/05/18 07:24:38;;;;;;;11.52;7.47;;;19.60;92.60;;;;;;5183995;28;20054;-71
2022/05/18 07:27:11;;;;;;;12.48;7.63;;;19.80;91.50;;;;;;5185289;28;20050;-71
2022/05/18 07:29:43;;;;;;;9.77;7.38;;;20.10;91.10;;;;;;5192753;28;20046;-71
2022/05/18 07:32:16;;;;;;;8.55;7.00;;;20.20;90.90;;;;;;5186037;28;20054;-71
2022/05/18 07:34:48;;;;;;;15.35;7.70;;;20.40;89.60;;;;;;5186988;28;20046;-70
2022/05/18 07:37:22;;;;;;;13.43;7.85;;;20.60;88.00;;;;;;5189297;28;20053;-71
2022/05/18 07:39:55;;;;;;;9.63;7.45;;;20.70;86.90;;;;;;5174281;28;20041;-71
2022/05/18 07:42:27;;;;;;;8.40;6.68;;;20.80;87.70;;;;;;5186900;28;20947;-69
2022/05/18 07:44:59;;;;;;;10.38;6.40;;;20.80;84.70;;;;;;5173860;28;20037;-71
2022/05/18 07:47:32;;;;;;;10.68;7.40;;;21.00;84.30;;;;;;5185897;28;20520;-71
2022/05/18 07:50:06;;;;;;;9.63;6.47;;;21.10;84.00;;;;;;5167760;28;20046;-70
2022/05/18 07:52:39;;;;;;;9.38;6.68;;;21.20;83.30;;;;;;5199747;28;20061;-71
2022/05/18 07:55:12;;;;;;;10.43;6.40;;;21.30;80.70;;;;;;5181704;28;20053;-71
2022/05/18 07:57:45;;;;;;;6.93;6.22;;;21.50;80.50;;;;;;5182621;28;20072;-70
2022/05/18 08:00:18;;;;;;;14.75;6.63;;;21.50;79.70;;;;;;5174449;28;20597;-70
2022/05/18 08:02:51;;;;;;;12.15;6.30;;;21.70;79.90;;;;;;5189029;28;20052;-71
2022/05/18 08:05:23;;;;;;;10.10;6.05;;;21.80;79.10;;;;;;5187576;28;20052;-71
2022/05/18 08:07:57;;;;;;;11.90;6.20;;;21.90;78.30;;;;;;5183461;28;20049;-71
2022/05/18 08:16:12;;;;;;;8.45;6.85;;;21.90;78.00;;;;;;5182818;28;20780;-70
2022/05/18 08:18:45;;;;;;;11.00;7.00;;;22.00;79.60;;;;;;5174528;28;20065;-70
2022/05/18 08:21:18;;;;;;;8.75;7.20;;;22.00;77.40;;;;;;5178013;28;20060;-70
2022/05/18 08:23:52;;;;;;;8.80;6.35;;;22.10;76.90;;;;;;5181660;28;20068;-69
2022/05/18 08:26:29;;;;;;;9.15;6.20;;;22.00;75.70;;;;;;5178068;28;20615;-70
2022/05/18 08:29:03;;;;;;;9.98;6.63;;;22.00;76.80;;;;;;5181432;28;20045;-70
2022/05/18 08:31:36;;;;;;;12.07;6.75;;;22.10;76.80;;;;;;5187572;28;20941;-71
2022/05/18 08:34:08;;;;;;;10.45;5.88;;;22.30;74.80;;;;;;5182868;28;20053;-71
2022/05/18 08:36:42;;;;;;;12.98;6.15;;;22.30;74.80;;;;;;5185254;28;20065;-71
2022/05/18 08:39:16;;;;;;;10.73;5.68;;;22.40;73.40;;;;;;5174963;28;20056;-70
2022/05/18 08:41:51;;;;;;;8.93;6.07;;;22.50;73.60;;;;;;5187123;28;20053;-71
2022/05/18 08:44:32;;;;;;;7.90;5.57;;;22.50;72.70;;;;;;5189206;28;20057;-71
2022/05/18 08:47:16;;;;;;;10.15;5.10;;;22.50;70.70;;;;;;5183906;28;20497;-70
2022/05/18 08:49:51;;;;;;;9.60;5.53;;;22.60;71.40;;;;;;5191254;28;20056;-70
2022/05/18 08:52:36;;;;;;;6.82;5.07;;;22.70;69.70;;;;;;5187946;28;20056;-70
2022/05/18 08:55:21;;;;;;;11.30;6.28;;;22.90;70.40;;;;;;5190686;28;20050;-70
2022/05/18 08:57:57;;;;;;;10.60;6.00;;;23.00;70.10;;;;;;5184580;28;20049;-70
2022/05/18 09:00:46;;;;;;;13.13;5.38;;;23.00;69.60;;;;;;5184875;28;20683;-71
2022/05/18 09:03:31;;;;;;;7.80;5.93;;;23.00;68.30;;;;;;5181827;28;20045;-71
2022/05/18 09:06:18;;;;;;;12.77;6.28;;;22.90;69.40;;;;;;5181866;28;20065;-71
2022/05/18 09:11:51;;;;;;;9.27;5.07;;;22.90;69.70;;;;;;5181306;28;20060;-70
2022/05/18 09:14:27;;;;;;;8.90;5.20;;;22.80;69.30;;;;;;5178491;28;20041;-70
2022/05/18 09:17:09;;;;;;;11.13;5.28;;;22.70;70.20;;;;;;5177668;28;20056;-70
2022/05/18 09:20:11;;;;;;;8.38;4.85;;;22.90;68.80;;;;;;5182623;28;20049;-71
2022/05/18 09:23:19;;;;;;;7.70;5.18;;;23.00;68.60;;;;;;5183187;28;20042;-70
2022/05/18 09:26:06;;;;;;;6.88;5.00;;;23.00;68.60;;;;;;5143165;23;20051;-76
2022/05/18 09:28:57;;;;;;;6.25;4.15;;;22.90;67.50;;;;;;5147239;28;20537;-75
2022/05/18 09:31:30;;;;;;;8.73;4.47;;;23.00;66.70;;;;;;5152521;28;20068;-76
2022/05/18 09:34:36;;;;;;;7.47;4.75;;;23.00;66.00;;;;;;5170330;28;20297;-75
2022/05/18 09:37:28;;;;;;;8.18;4.47;;;23.00;64.70;;;;;;5153859;28;20050;-75
2022/05/18 09:40:17;;;;;;;9.32;4.38;;;22.90;65.10;;;;;;5177056;28;20042;-74
2022/05/18 09:42:58;;;;;;;6.22;4.05;;;22.90;64.60;;;;;;5173078;28;20041;-74
2022/05/18 09:45:34;;;;;;;11.23;4.38;;;23.00;65.60;;;;;;5163135;28;20042;-75
2022/05/18 09:48:13;;;;;;;12.40;4.60;;;23.10;64.30;;;;;;5166510;28;21381;-75
2022/05/18 09:50:48;;;;;;;5.13;4.13;;;23.20;65.70;;;;;;5148717;28;20076;-75
2022/05/18 09:53:20;;;;;;;8.63;4.55;;;23.30;65.90;;;;;;5167968;28;20046;-74
2022/05/18 09:55:53;;;;;;;6.22;4.30;;;23.30;65.30;;;;;;5176173;28;20054;-74
2022/05/18 09:58:29;;;;;;;4.78;4.07;;;23.30;65.20;;;;;;5177927;28;20046;-73
2022/05/18 10:09:47;;;;;;;7.32;4.32;;;23.60;63.20;;;;;;5177960;28;20520;-74
2022/05/18 10:12:22;;;;;;;8.02;4.38;;;23.60;62.60;;;;;;5179104;28;20536;-74
2022/05/18 10:15:03;;;;;;;5.90;4.50;;;23.60;63.10;;;;;;5174570;28;20038;-74
2022/05/18 10:17:38;;;;;;;6.00;4.30;;;23.70;62.00;;;;;;5177807;28;20053;-75
2022/05/18 10:20:26;;;;;;;5.22;3.42;;;23.80;61.90;;;;;;5176970;28;20045;-75
2022/05/18 10:23:01;;;;;;;6.60;3.47;;;24.00;56.60;;;;;;5174357;28;20045;-73
2022/05/18 10:25:40;;;;;;;8.18;3.88;;;24.20;57.30;;;;;;5155136;28;20509;-74
2022/05/18 10:28:22;;;;;;;8.93;3.95;;;24.50;57.90;;;;;;5173878;28;20046;-74
2022/05/18 10:31:04;;;;;;;5.45;4.45;;;24.90;57.10;;;;;;5162903;28;20045;-74
2022/05/18 10:33:39;;;;;;;8.88;6.25;;;25.10;56.70;;;;;;5179877;28;20057;-74
2022/05/18 10:36:15;;;;;;;6.32;4.30;;;25.30;57.60;;;;;;5177240;28;20057;-74
2022/05/18 10:38:53;;;;;;;9.45;4.40;;;25.60;55.80;;;;;;5183178;28;20064;-74
2022/05/18 10:41:38;;;;;;;6.70;4.28;;;25.70;56.20;;;;;;5158106;28;20052;-74
2022/05/18 10:44:16;;;;;;;5.07;3.03;;;25.90;55.50;;;;;;5170877;28;20402;-74
2022/05/18 10:46:51;;;;;;;6.18;3.63;;;26.20;54.30;;;;;;5182970;28;20041;-72
2022/05/18 10:49:32;;;;;;;5.13;3.28;;;26.20;53.00;;;;;;5164315;28;20603;-72
2022/05/18 10:52:10;;;;;;;6.88;3.75;;;26.40;54.10;;;;;;5169226;28;20417;-71
2022/05/18 10:54:56;;;;;;;5.15;3.10;;;26.50;51.90;;;;;;5189450;28;20041;-72
2022/05/18 10:57:33;;;;;;;9.48;3.95;;;26.70;52.70;;;;;;5191357;28;20049;-73
2022/05/18 11:00:17;;;;;;;5.07;3.92;;;26.90;53.80;;;;;;5175568;28;20049;-73
2022/05/18 11:03:12;;;;;;;6.00;3.72;;;27.10;53.00;;;;;;5173508;28;27781;-73
2022/05/18 11:06:34;;;;;;;5.25;4.00;;;27.20;52.40;;;;;;5169893;28;20049;-73
2022/05/18 11:09:16;;;;;;;6.82;4.40;;;27.40;52.10;;;;;;5101662;28;20055;-73
2022/05/18 11:12:01;;;;;;;7.25;4.13;;;27.60;52.70;;;;;;5120544;28;20074;-72
2022/05/18 11:14:36;;;;;;;8.63;4.63;;;27.90;53.70;;;;;;5163423;28;20053;-73
2022/05/18 11:17:33;;;;;;;4.93;3.92;;;27.80;54.20;;;;;;5174730;28;20052;-73
2022/05/18 11:20:22;;;;;;;5.85;4.07;;;27.90;53.20;;;;;;5171273;28;20053;-73
2022/05/18 11:23:10;;;;;;;8.25;4.40;;;27.80;53.40;;;;;;5160791;28;20052;-73
2022/05/18 11:25:58;;;;;;;5.68;4.20;;;27.10;54.10;;;;;;5178078;28;20493;-73
2022/05/18 11:29:11;;;;;;;6.30;4.53;;;26.70;54.50;;;;;;5156379;28;20058;-72
2022/05/18 11:31:52;;;;;;;6.30;3.85;;;26.80;53.80;;;;;;5175297;28;20053;-73
2022/05/18 12:45:44;;;;;;;9.82;5.32;;;27.60;51.60;;;;;;5293034;27;20545;-72
2022/05/18 12:48:20;;;;;;;6.38;5.20;;;28.60;52.80;;;;;;5295807;27;20055;-73
2022/05/18 12:51:05;;;;;;;6.82;4.38;;;28.60;53.50;;;;;;5291274;27;20051;-74
2022/05/18 12:53:45;;;;;;;10.90;5.05;;;28.80;54.20;;;;;;5289124;27;20053;-73
2022/05/18 12:56:42;;;;;;;6.20;4.47;;;29.10;53.20;;;;;;5291118;27;20536;-74
2022/05/18 12:59:24;;;;;;;5.57;4.47;;;29.20;52.90;;;;;;5289647;27;20505;-75
2022/05/18 13:02:04;;;;;;;5.70;4.00;;;29.20;52.70;;;;;;5293690;27;20066;-74
2022/05/18 13:04:45;;;;;;;7.65;4.28;;;29.50;51.80;;;;;;5290658;27;20051;-74
2022/05/18 13:07:30;;;;;;;7.30;3.92;;;29.60;50.90;;;;;;5292595;27;20043;-74
2022/05/18 13:10:16;;;;;;;9.02;3.97;;;29.40;51.00;;;;;;5281704;27;20043;-74
2022/05/18 13:12:59;;;;;;;7.13;3.75;;;29.20;51.90;;;;;;5290569;27;20067;-73
2022/05/18 13:15:49;;;;;;;8.63;3.70;;;29.50;51.80;;;;;;5292975;27;20070;-74
2022/05/18 13:18:28;;;;;;;6.32;3.50;;;30.00;50.40;;;;;;5286925;27;20051;-74
2022/05/18 13:21:07;;;;;;;6.95;3.65;;;29.70;50.20;;;;;;5288013;27;20043;-74
2022/05/18 13:24:14;;;;;;;5.68;3.40;;;29.50;52.10;;;;;;5281077;27;20719;-73
2022/05/18 13:26:49;;;;;;;8.07;3.83;;;29.60;50.20;;;;;;5272757;27;20475;-74
2022/05/18 13:29:27;;;;;;;6.32;3.75;;;29.80;50.80;;;;;;5277190;27;20587;-73
2022/05/18 13:32:07;;;;;;;4.60;3.25;;;29.80;49.50;;;;;;5287060;27;20058;-74
2022/05/18 13:35:01;;;;;;;5.78;3.60;;;30.00;49.60;;;;;;5283800;27;20570;-74
2022/05/18 13:37:33;;;;;;;10.90;3.15;;;29.90;49.30;;;;;;5305882;27;20051;-74
2022/05/18 13:40:25;;;;;;;6.28;3.40;;;29.70;47.90;;;;;;5285553;27;21302;-74
2022/05/18 13:43:00;;;;;;;6.10;3.20;;;29.60;48.30;;;;;;5282849;27;20047;-74
2022/05/18 13:45:34;;;;;;;4.85;3.20;;;29.50;48.70;;;;;;5273801;27;20431;-74
2022/05/18 13:48:12;;;;;;;9.50;2.80;;;29.30;49.20;;;;;;5286668;27;20048;-74
2022/05/18 13:51:10;;;;;;;3.53;2.30;;;29.40;47.40;;;;;;5285446;27;20611;-73
2022/05/18 13:53:54;;;;;;;3.42;2.63;;;29.40;47.50;;;;;;5279538;27;20039;-74
2022/05/18 13:56:31;;;;;;;7.13;2.70;;;29.80;46.50;;;;;;5280168;27;20047;-73
2022/05/18 13:59:10;;;;;;;3.47;2.78;;;29.90;46.00;;;;;;5275795;27;20039;-73
2022/05/18 14:01:47;;;;;;;3.58;2.80;;;29.90;46.20;;;;;;5270792;27;20517;-74
2022/05/18 14:04:28;;;;;;;3.63;2.90;;;29.50;45.70;;;;;;5279646;27;20755;-73
2022/05/18 14:07:22;;;;;;;5.70;2.80;;;29.60;46.30;;;;;;5276179;27;20043;-74
2022/05/18 14:10:19;;;;;;;6.32;2.80;;;29.10;46.40;;;;;;5275756;27;20509;-74
2022/05/18 14:13:00;;;;;;;4.25;2.83;;;29.00;47.00;;;;;;5257858;27;20043;-74
2022/05/18 14:15:38;;;;;;;3.17;2.83;;;29.30;48.00;;;;;;5265150;27;20486;-73
2022/05/18 14:18:43;;;;;;;4.10;3.00;;;29.50;46.80;;;;;;5263276;27;20570;-72
2022/05/18 14:21:16;;;;;;;3.95;3.05;;;29.20;47.20;;;;;;5273967;27;20058;-74
2022/05/18 14:24:15;;;;;;;3.22;2.88;;;29.20;46.70;;;;;;5271152;27;20043;-73
2022/05/18 14:26:53;;;;;;;4.00;2.65;;;29.50;46.20;;;;;;5276199;27;20043;-73
2022/05/18 14:29:39;;;;;;;3.38;2.90;;;29.40;45.60;;;;;;5269802;27;20043;-73
2022/05/18 14:32:25;;;;;;;3.70;2.40;;;29.20;46.10;;;;;;5262250;27;20050;-73
2022/05/18 14:35:01;;;;;;;4.28;2.80;;;29.30;46.40;;;;;;5269804;27;20072;-73
2022/05/18 14:37:40;;;;;;;4.45;2.40;;;29.20;47.10;;;;;;5258084;27;20824;-74
2022/05/18 14:40:16;;;;;;;5.85;2.80;;;29.30;45.60;;;;;;5278237;27;20379;-74
2022/05/18 14:42:53;;;;;;;4.90;2.60;;;29.20;45.50;;;;;;5266848;27;20051;-74
2022/05/18 14:45:28;;;;;;;3.15;2.72;;;29.30;46.00;;;;;;5271810;27;20384;-74
2022/05/18 14:48:09;;;;;;;3.42;2.50;;;29.40;46.00;;;;;;5266966;27;20043;-74
2022/05/18 14:50:47;;;;;;;3.20;2.17;;;29.20;45.10;;;;;;5273894;27;20047;-72
2022/05/18 14:53:23;;;;;;;4.65;2.50;;;29.00;45.50;;;;;;5271018;27;20503;-74
2022/05/18 14:55:55;;;;;;;3.53;2.58;;;28.80;46.00;;;;;;5275290;27;20040;-74
2022/05/18 14:58:32;;;;;;;7.22;2.58;;;28.70;46.50;;;;;;5275765;27;20052;-74
2022/05/18 15:01:14;;;;;;;3.47;2.53;;;28.90;46.20;;;;;;5266161;27;20043;-74
2022/05/18 15:03:47;;;;;;;5.07;2.47;;;28.90;45.80;;;;;;5272124;27;20042;-75
2022/05/18 15:06:27;;;;;;;8.02;3.08;;;28.80;45.30;;;;;;5264230;27;20168;-76
2022/05/18 15:09:05;;;;;;;2.85;2.10;;;28.90;45.60;;;;;;5277434;27;20054;-75